Time;durP1;ratioP1;P1;durP2;ratioP2;P2;SDS_P1;SDS_P2;PMS_P1;PMS_P2;Temp;Humidity;BMP_temperature;BMP_pressure;BME280_temperature;BME280_humidity;BME280_pressure;Samples;Min_cycle;Max_cycle;Signal;HPM_P1;HPM_P2
2021/05/14 00:01:56;;;;;;;30.92;15.18;;;;;;;5.06;100.00;100737.47;5226487;28;20388;-88
2021/05/14 00:04:27;;;;;;;34.75;15.13;;;;;;;5.07;100.00;100740.97;5226935;28;20033;-88
2021/05/14 00:06:57;;;;;;;35.63;17.23;;;;;;;5.02;100.00;100737.84;5226506;28;20033;-88
2021/05/14 00:09:28;;;;;;;39.28;18.65;;;;;;;5.01;100.00;100734.34;5226381;28;20025;-88
2021/05/14 00:11:58;;;;;;;43.53;20.58;;;;;;;4.94;100.00;100739.38;5226611;28;20127;-89
2021/05/14 00:14:29;;;;;;;44.33;20.95;;;;;;;4.91;100.00;100736.13;5226588;28;20024;-88
2021/05/14 00:16:59;;;;;;;30.83;14.82;;;;;;;4.90;100.00;100732.63;5238572;28;20028;-88
2021/05/14 00:19:29;;;;;;;31.75;14.43;;;;;;;4.97;100.00;100732.09;5226075;28;20057;-88
2021/05/14 00:22:00;;;;;;;41.90;17.60;;;;;;;5.01;100.00;100729.03;5226526;28;20500;-88
2021/05/14 00:24:30;;;;;;;40.55;19.73;;;;;;;5.03;100.00;100739.56;5226637;28;20472;-88
2021/05/14 00:27:01;;;;;;;38.22;19.17;;;;;;;4.94;100.00;100728.75;5238719;28;20077;-88
2021/05/14 00:29:32;;;;;;;40.72;19.10;;;;;;;4.82;100.00;100724.50;5226012;28;20400;-88
2021/05/14 00:32:02;;;;;;;46.95;20.60;;;;;;;4.76;100.00;100730.31;5226211;28;20136;-88
2021/05/14 00:34:33;;;;;;;40.25;19.02;;;;;;;4.70;100.00;100730.84;5219070;28;20028;-88
2021/05/14 00:37:03;;;;;;;41.05;18.80;;;;;;;4.63;100.00;100729.69;5226180;28;20584;-88
2021/05/14 00:39:34;;;;;;;36.00;16.90;;;;;;;4.62;100.00;100725.38;5225754;28;20515;-88
2021/05/14 00:42:05;;;;;;;40.35;18.25;;;;;;;4.66;100.00;100732.06;5226192;28;20032;-88
2021/05/14 00:44:37;;;;;;;39.00;18.45;;;;;;;4.71;100.00;100727.22;5224943;28;20033;-88
2021/05/14 00:47:09;;;;;;;42.03;19.67;;;;;;;4.72;100.00;100717.41;5226093;28;20400;-88
2021/05/14 00:49:40;;;;;;;57.58;24.02;;;;;;;4.73;100.00;100725.28;5224183;28;20029;-88
2021/05/14 00:52:14;;;;;;;54.03;23.98;;;;;;;4.65;100.00;100709.97;5225681;28;20503;-88
2021/05/14 00:54:46;;;;;;;47.17;21.08;;;;;;;4.65;100.00;100725.91;5225538;28;20052;-88
2021/05/14 00:57:17;;;;;;;45.45;20.25;;;;;;;4.59;100.00;100718.47;5226059;28;20471;-88
2021/05/14 00:59:48;;;;;;;49.90;23.20;;;;;;;4.57;100.00;100719.59;5226235;28;20084;-88
2021/05/14 01:02:19;;;;;;;44.63;20.83;;;;;;;4.50;100.00;100715.75;5225821;28;20028;-88
2021/05/14 01:04:50;;;;;;;37.45;17.85;;;;;;;4.39;100.00;100722.84;5241767;28;20095;-88
2021/05/14 01:07:20;;;;;;;39.13;18.02;;;;;;;4.32;100.00;100726.16;5225675;28;20036;-88
2021/05/14 01:09:51;;;;;;;39.25;17.70;;;;;;;4.27;100.00;100718.56;5226213;28;20025;-88
2021/05/14 01:12:22;;;;;;;44.30;18.88;;;;;;;4.31;100.00;100717.31;5225927;28;20503;-88
2021/05/14 01:14:52;;;;;;;42.22;18.65;;;;;;;4.28;100.00;100727.38;5225722;28;20032;-88
2021/05/14 01:17:23;;;;;;;40.20;18.33;;;;;;;4.22;100.00;100728.72;5225855;28;20021;-88
2021/05/14 01:19:53;;;;;;;34.13;16.15;;;;;;;4.14;100.00;100716.06;5225409;28;20546;-88
2021/05/14 01:22:25;;;;;;;37.63;17.40;;;;;;;4.18;100.00;100724.63;5225974;28;20480;-88
2021/05/14 01:24:56;;;;;;;1999.90;805.22;;;;;;;5.09;100.00;100721.25;5226016;28;20024;-88
2021/05/14 01:27:26;;;;;;;1823.07;465.48;;;;;;;5.91;100.00;100720.19;5226248;28;20051;-88
2021/05/14 01:29:57;;;;;;;198.25;92.10;;;;;;;6.58;100.00;100722.00;5225408;28;20112;-88
2021/05/14 01:32:27;;;;;;;113.68;42.10;;;;;;;7.14;100.00;100718.44;5225757;28;20090;-89
2021/05/14 01:34:58;;;;;;;93.70;34.78;;;;;;;6.87;100.00;100710.41;5225469;28;20028;-88
2021/05/14 01:37:29;;;;;;;68.38;28.65;;;;;;;7.45;100.00;100710.97;5225683;28;20037;-88
2021/05/14 01:39:59;;;;;;;31.88;16.90;;;;;;;6.71;100.00;100714.50;5225300;28;20071;-88
2021/05/14 01:42:30;;;;;;;27.17;14.73;;;;;;;6.33;100.00;100707.44;5225515;28;20094;-88
2021/05/14 01:45:06;;;;;;;26.37;14.50;;;;;;;5.83;100.00;100694.25;5225254;28;20104;-89
2021/05/14 01:47:44;;;;;;;38.97;21.75;;;;;;;5.59;100.00;100694.66;5225390;28;20116;-88
2021/05/14 01:50:27;;;;;;;32.30;17.02;;;;;;;5.38;100.00;100688.59;5224677;28;20021;-88
2021/05/14 01:52:58;;;;;;;40.85;20.55;;;;;;;5.19;100.00;100697.34;5223700;28;20028;-88
2021/05/14 01:55:29;;;;;;;33.80;17.45;;;;;;;5.01;100.00;100683.00;5224954;28;20365;-89
2021/05/14 01:58:00;;;;;;;37.05;17.90;;;;;;;4.92;100.00;100697.97;5225005;28;20494;-88
2021/05/14 02:00:31;;;;;;;56.88;27.25;;;;;;;4.86;100.00;100688.69;5223713;28;20071;-88
2021/05/14 02:03:03;;;;;;;48.97;22.48;;;;;;;4.86;100.00;100691.34;5225507;28;20151;-88
2021/05/14 02:05:33;;;;;;;53.50;22.60;;;;;;;4.84;100.00;100701.28;5224920;28;20025;-88
2021/05/14 02:08:04;;;;;;;64.72;25.25;;;;;;;4.89;100.00;100691.09;5223615;28;20031;-88
2021/05/14 02:10:35;;;;;;;48.38;21.80;;;;;;;5.25;100.00;100694.16;5223586;28;20071;-88
2021/05/14 02:13:05;;;;;;;1822.05;262.30;;;;;;;5.41;100.00;100697.13;5224714;28;20518;-88
2021/05/14 02:15:36;;;;;;;1999.90;536.90;;;;;;;5.63;100.00;100697.88;5224823;28;20488;-88
2021/05/14 02:18:07;;;;;;;1841.72;290.80;;;;;;;5.91;100.00;100690.88;5224889;28;20028;-88
2021/05/14 02:20:37;;;;;;;145.93;26.70;;;;;;;5.85;100.00;100694.13;5229260;28;20017;-88
2021/05/14 02:23:08;;;;;;;158.13;24.23;;;;;;;5.54;100.00;100693.38;5229097;28;20387;-88
2021/05/14 02:25:38;;;;;;;125.28;20.05;;;;;;;5.27;100.00;100689.56;5229372;28;20584;-88
2021/05/14 02:28:09;;;;;;;112.97;19.55;;;;;;;5.08;100.00;100697.47;5228950;28;20024;-88
2021/05/14 02:30:40;;;;;;;350.95;114.05;;;;;;;5.28;100.00;100693.88;5228652;28;20047;-88
2021/05/14 02:33:10;;;;;;;1999.90;502.98;;;;;;;5.49;100.00;100707.09;5229040;28;20078;-88
2021/05/14 02:35:41;;;;;;;234.43;33.25;;;;;;;5.31;100.00;100698.91;5228970;28;20504;-88
2021/05/14 02:38:12;;;;;;;204.88;26.77;;;;;;;5.11;100.00;100692.69;5229052;28;20028;-88
2021/05/14 02:40:43;;;;;;;72.43;21.80;;;;;;;5.13;100.00;100693.41;5229210;28;20437;-88
2021/05/14 02:43:13;;;;;;;1999.90;361.98;;;;;;;5.06;100.00;100689.59;5227450;28;20027;-89
2021/05/14 02:45:44;;;;;;;58.15;25.70;;;;;;;5.32;100.00;100692.66;5228796;28;20104;-88
2021/05/14 02:48:16;;;;;;;1999.90;497.63;;;;;;;5.13;100.00;100693.41;5228804;28;20040;-89
2021/05/14 02:50:47;;;;;;;613.42;86.68;;;;;;;5.39;100.00;100688.44;5227973;28;20060;-89
2021/05/14 02:53:17;;;;;;;130.60;52.80;;;;;;;5.37;100.00;100697.53;5229008;28;20056;-88
2021/05/14 02:55:48;;;;;;;590.63;64.15;;;;;;;5.55;100.00;100695.91;5228574;28;20021;-89
2021/05/14 02:58:18;;;;;;;141.75;24.45;;;;;;;5.16;100.00;100689.63;5228333;28;20127;-88
2021/05/14 03:00:49;;;;;;;71.93;19.52;;;;;;;5.10;100.00;100679.53;5228093;28;20052;-89
2021/05/14 03:03:19;;;;;;;820.17;89.07;;;;;;;4.81;100.00;100674.94;5228304;28;20104;-88
2021/05/14 03:05:50;;;;;;;45.97;19.70;;;;;;;4.70;100.00;100675.03;5228139;28;20025;-88
2021/05/14 03:08:21;;;;;;;41.45;20.85;;;;;;;4.56;100.00;100667.41;5228205;28;20115;-89
2021/05/14 03:10:51;;;;;;;38.22;18.10;;;;;;;4.52;100.00;100665.97;5227915;28;20261;-88
2021/05/14 03:13:22;;;;;;;261.65;42.55;;;;;;;4.37;100.00;100665.50;5226859;28;20083;-88
2021/05/14 03:15:52;;;;;;;1608.53;236.05;;;;;;;4.43;100.00;100666.81;5230315;28;20055;-88
2021/05/14 03:18:23;;;;;;;453.77;119.85;;;;;;;4.61;100.00;100657.22;5231152;28;20025;-88
2021/05/14 03:20:55;;;;;;;50.85;23.67;;;;;;;4.86;100.00;100675.38;5231354;28;20108;-88
2021/05/14 03:23:25;;;;;;;236.60;74.75;;;;;;;4.83;100.00;100682.81;5230903;28;20044;-88
2021/05/14 03:25:56;;;;;;;73.55;29.40;;;;;;;4.75;100.00;100674.66;5231779;28;20465;-88
2021/05/14 03:28:26;;;;;;;45.22;19.05;;;;;;;4.65;100.00;100679.91;5231328;28;20033;-88
2021/05/14 03:30:57;;;;;;;41.42;16.85;;;;;;;4.74;100.00;100681.78;5231736;28;20472;-88
2021/05/14 03:33:27;;;;;;;46.55;17.65;;;;;;;4.83;100.00;100688.97;5231147;28;20031;-88
2021/05/14 03:35:58;;;;;;;81.60;29.38;;;;;;;5.05;100.00;100676.44;5213538;28;20400;-88
2021/05/14 03:38:33;;;;;;;72.65;22.30;;;;;;;5.46;100.00;100688.72;5214193;28;20428;-88
2021/05/14 03:41:17;;;;;;;92.00;35.08;;;;;;;7.00;100.00;100692.25;5231590;28;20017;-88
2021/05/14 03:43:47;;;;;;;173.90;51.30;;;;;;;7.79;100.00;100691.66;5231515;28;20388;-89
2021/05/14 03:46:18;;;;;;;411.05;71.20;;;;;;;8.07;100.00;100691.56;5231987;28;20021;-88
2021/05/14 03:48:48;;;;;;;100.63;20.42;;;;;;;6.92;100.00;100681.47;5231136;28;20653;-88
2021/05/14 03:51:19;;;;;;;257.30;50.08;;;;;;;7.08;100.00;100676.38;5231334;28;20032;-88
2021/05/14 03:53:49;;;;;;;102.25;32.65;;;;;;;8.66;100.00;100682.03;5231438;28;20025;-88
2021/05/14 03:56:20;;;;;;;322.73;65.05;;;;;;;9.48;100.00;100685.91;5231401;28;20021;-88
2021/05/14 03:58:50;;;;;;;418.15;73.57;;;;;;;9.68;100.00;100689.13;5232036;28;20040;-88
2021/05/14 04:01:21;;;;;;;118.68;19.25;;;;;;;8.45;100.00;100688.56;5231622;28;20052;-89
2021/05/14 04:03:51;;;;;;;143.77;16.13;;;;;;;7.06;100.00;100677.47;5231090;28;20454;-88
2021/05/14 04:06:23;;;;;;;72.22;15.15;;;;;;;6.37;100.00;100670.69;5230562;28;20029;-88
2021/05/14 04:08:53;;;;;;;61.33;15.02;;;;;;;5.88;100.00;100670.72;5230442;28;20033;-88
2021/05/14 04:11:51;;;;;;;72.22;16.55;;;;;;;5.71;100.00;100674.06;5230599;28;20036;-88
2021/05/14 04:14:30;;;;;;;30.58;15.20;;;;;;;5.51;100.00;100678.50;5230470;28;20040;-88
2021/05/14 04:17:03;;;;;;;78.47;25.30;;;;;;;6.71;100.00;100679.03;5230381;28;20032;-88
2021/05/14 04:19:34;;;;;;;54.95;15.93;;;;;;;6.54;100.00;100661.13;5229938;28;20025;-88
2021/05/14 04:22:06;;;;;;;51.13;15.75;;;;;;;7.14;100.00;100688.28;5230198;28;20033;-88
2021/05/14 04:24:37;;;;;;;62.35;16.13;;;;;;;6.75;100.00;100686.59;5230243;28;20025;-88
2021/05/14 04:27:07;;;;;;;84.88;15.05;;;;;;;6.25;100.00;100678.00;5230266;28;20039;-88
2021/05/14 04:29:38;;;;;;;101.75;16.13;;;;;;;5.91;100.00;100680.22;5229626;28;20031;-88
2021/05/14 04:32:08;;;;;;;87.88;16.20;;;;;;;5.58;100.00;100678.84;5229620;28;20256;-88
2021/05/14 04:34:39;;;;;;;85.15;17.75;;;;;;;5.33;100.00;100674.88;5229546;28;20377;-88
2021/05/14 04:37:12;;;;;;;104.65;16.58;;;;;;;5.19;100.00;100686.72;5229329;28;20042;-88
2021/05/14 04:39:43;;;;;;;157.85;17.27;;;;;;;5.30;100.00;100675.13;5228472;28;20036;-88
2021/05/14 04:42:13;;;;;;;104.72;16.30;;;;;;;5.17;100.00;100675.34;5229345;28;20468;-88
2021/05/14 04:44:43;;;;;;;105.53;16.48;;;;;;;5.00;100.00;100684.81;5227980;28;20051;-88
2021/05/14 04:47:14;;;;;;;71.25;15.48;;;;;;;5.04;100.00;100685.41;5229124;28;20029;-88
2021/05/14 04:49:44;;;;;;;102.07;16.60;;;;;;;5.12;100.00;100681.09;5229379;28;20063;-88
2021/05/14 04:52:19;;;;;;;108.72;31.20;;;;;;;6.32;100.00;100691.59;5229180;28;20056;-88
2021/05/14 04:54:49;;;;;;;112.38;43.85;;;;;;;8.27;100.00;100695.75;5229092;28;20055;-88
2021/05/14 04:57:20;;;;;;;111.13;29.33;;;;;;;8.42;100.00;100698.72;5228708;28;20017;-88
2021/05/14 04:59:50;;;;;;;234.30;50.35;;;;;;;9.55;100.00;100697.66;5229159;28;20036;-88
2021/05/14 05:02:21;;;;;;;70.80;27.40;;;;;;;9.84;100.00;100702.59;5228903;28;20086;-88
2021/05/14 05:04:51;;;;;;;33.83;16.17;;;;;;;8.57;100.00;100686.47;5228803;28;20495;-88
2021/05/14 05:07:22;;;;;;;34.25;15.63;;;;;;;7.81;100.00;100683.50;5229221;28;20025;-88
2021/05/14 05:09:52;;;;;;;35.00;17.33;;;;;;;7.48;100.00;100672.47;5228814;28;20434;-88
2021/05/14 05:12:23;;;;;;;39.80;19.40;;;;;;;7.72;100.00;100686.06;5229005;28;20029;-88
2021/05/14 05:14:53;;;;;;;48.50;24.08;;;;;;;8.10;100.00;100683.25;5228815;28;20037;-88
2021/05/14 05:17:24;;;;;;;34.72;18.85;;;;;;;8.02;100.00;100687.53;5228352;28;20476;-88
2021/05/14 05:19:55;;;;;;;56.33;27.60;;;;;;;8.55;100.00;100689.31;5228663;28;20067;-87
2021/05/14 05:22:25;;;;;;;37.55;20.98;;;;;;;8.83;100.00;100689.13;5228348;28;20029;-88
2021/05/14 05:24:56;;;;;;;31.83;18.50;;;;;;;9.27;100.00;100691.69;5227185;28;20365;-88
2021/05/14 05:27:26;;;;;;;25.90;14.80;;;;;;;9.63;100.00;100703.00;5228223;28;20021;-88
2021/05/14 05:29:57;;;;;;;17.30;10.45;;;;;;;9.97;100.00;100705.59;5227844;28;20103;-88
2021/05/14 05:32:27;;;;;;;29.55;16.67;;;;;;;10.88;100.00;100704.56;5227535;28;20027;-87
2021/05/14 05:34:58;;;;;;;17.15;11.40;;;;;;;12.01;100.00;100698.84;5227674;28;20040;-88
2021/05/14 05:37:28;;;;;;;16.80;11.20;;;;;;;11.21;100.00;100696.41;5227282;28;20028;-88
2021/05/14 05:39:59;;;;;;;14.68;10.50;;;;;;;11.59;100.00;100698.22;5224826;28;20025;-85
2021/05/14 05:42:29;;;;;;;19.25;10.82;;;;;;;12.08;100.00;100703.31;5224964;28;20542;-85
2021/05/14 05:45:00;;;;;;;16.02;10.27;;;;;;;12.36;100.00;100703.63;5225697;28;20021;-88
2021/05/14 05:47:32;;;;;;;16.15;11.25;;;;;;;12.51;100.00;100710.91;5224612;28;20526;-87
2021/05/14 05:50:04;;;;;;;19.23;11.93;;;;;;;12.94;100.00;100712.78;5217016;28;20025;-88
2021/05/14 05:52:35;;;;;;;19.20;12.77;;;;;;;13.30;100.00;100711.22;5218797;28;20028;-89
2021/05/14 05:55:06;;;;;;;27.17;14.88;;;;;;;13.71;100.00;100714.25;5223283;28;20016;-88
2021/05/14 05:57:36;;;;;;;28.27;14.38;;;;;;;14.08;100.00;100715.88;5225076;28;20029;-89
2021/05/14 06:00:07;;;;;;;17.00;11.75;;;;;;;14.39;100.00;100720.13;5227243;28;20025;-89
2021/05/14 06:02:38;;;;;;;16.27;10.38;;;;;;;14.62;100.00;100719.94;5226063;28;20032;-89
2021/05/14 06:05:09;;;;;;;14.85;9.48;;;;;;;15.06;100.00;100722.31;5226844;28;20484;-88
2021/05/14 06:07:40;;;;;;;13.95;8.82;;;;;;;15.22;100.00;100729.28;5225855;28;20119;-89
2021/05/14 06:10:11;;;;;;;13.95;9.02;;;;;;;14.74;100.00;100729.16;5225703;28;20109;-87
2021/05/14 06:12:41;;;;;;;13.73;8.57;;;;;;;14.93;100.00;100716.81;5224329;28;20037;-88
2021/05/14 06:15:13;;;;;;;16.55;8.73;;;;;;;15.39;100.00;100727.06;5223511;28;20040;-88
2021/05/14 06:17:44;;;;;;;13.45;9.18;;;;;;;15.21;100.00;100736.56;5223597;28;20578;-87
2021/05/14 06:20:19;;;;;;;11.18;7.85;;;;;;;14.87;100.00;100731.97;5223683;28;20013;-87
2021/05/14 06:22:49;;;;;;;14.23;8.93;;;;;;;14.84;100.00;100736.91;5230188;28;20033;-86
2021/05/14 06:25:20;;;;;;;13.68;8.02;;;;;;;15.03;100.00;100741.63;5225368;28;20019;-88
2021/05/14 06:27:50;;;;;;;12.98;7.57;;;;;;;14.99;100.00;100738.47;5224705;28;20051;-88
2021/05/14 06:30:21;;;;;;;11.13;7.35;;;;;;;14.95;100.00;100744.47;5223965;28;20031;-87
2021/05/14 06:32:52;;;;;;;13.10;6.97;;;;;;;14.30;100.00;100730.19;5224262;28;20032;-88
2021/05/14 06:35:23;;;;;;;12.30;7.10;;;;;;;13.86;100.00;100743.88;5224320;28;20025;-88
2021/05/14 06:37:54;;;;;;;9.77;6.13;;;;;;;13.77;100.00;100732.34;5224916;28;20028;-87
2021/05/14 06:40:24;;;;;;;10.80;6.18;;;;;;;13.48;100.00;100738.63;5223310;28;20075;-87
2021/05/14 06:42:54;;;;;;;11.13;5.97;;;;;;;13.27;100.00;100734.00;5225016;28;20029;-87
2021/05/14 06:45:25;;;;;;;9.65;5.65;;;;;;;13.12;100.00;100738.53;5224810;28;20405;-88
2021/05/14 06:48:03;;;;;;;10.70;5.38;;;;;;;13.19;100.00;100737.59;5226720;28;20028;-88
2021/05/14 06:50:35;;;;;;;17.10;6.32;;;;;;;13.02;100.00;100744.19;5223051;28;20028;-86
2021/05/14 06:53:06;;;;;;;10.68;5.20;;;;;;;13.01;100.00;100739.84;5225980;28;20523;-88
2021/05/14 06:55:37;;;;;;;8.05;5.15;;;;;;;12.98;100.00;100742.88;5226826;28;20083;-88
2021/05/14 06:58:08;;;;;;;13.38;6.22;;;;;;;12.79;100.00;100746.94;5227106;28;20029;-88
2021/05/14 07:00:39;;;;;;;12.82;5.15;;;;;;;12.84;100.00;100743.69;5227715;28;20454;-88
2021/05/14 07:03:09;;;;;;;10.52;5.80;;;;;;;12.90;100.00;100751.91;5226956;28;20020;-87
2021/05/14 07:05:40;;;;;;;19.50;6.47;;;;;;;12.88;100.00;100753.91;5227866;28;20141;-86
2021/05/14 07:08:10;;;;;;;13.55;6.30;;;;;;;12.99;100.00;100763.41;5227877;28;20025;-86
2021/05/14 07:10:41;;;;;;;11.45;6.07;;;;;;;13.10;100.00;100752.19;5227444;28;20112;-86
2021/05/14 07:13:11;;;;;;;15.40;6.28;;;;;;;13.37;100.00;100760.69;5227596;28;20048;-86
2021/05/14 07:15:42;;;;;;;10.43;6.28;;;;;;;13.51;100.00;100751.75;5227251;28;20071;-87
2021/05/14 07:18:12;;;;;;;13.30;6.75;;;;;;;13.54;100.00;100762.13;5228274;28;20033;-86
2021/05/14 07:20:42;;;;;;;12.57;6.75;;;;;;;13.81;100.00;100757.09;5227574;28;20053;-87
2021/05/14 07:23:13;;;;;;;12.27;6.22;;;;;;;13.99;100.00;100752.94;5226512;28;20116;-87
2021/05/14 07:25:43;;;;;;;13.50;6.47;;;;;;;14.34;100.00;100753.06;5225971;28;20107;-86
2021/05/14 07:28:14;;;;;;;14.13;7.50;;;;;;;14.45;100.00;100757.94;5227390;28;20035;-86
2021/05/14 07:30:45;;;;;;;11.02;6.00;;;;;;;14.57;100.00;100758.31;5225602;28;20100;-86
2021/05/14 07:33:16;;;;;;;14.57;6.78;;;;;;;14.58;100.00;100761.84;5227134;28;20110;-86
2021/05/14 07:35:47;;;;;;;13.57;6.68;;;;;;;14.91;100.00;100756.69;5227600;28;20040;-84
2021/05/14 07:38:17;;;;;;;13.02;7.03;;;;;;;14.86;100.00;100762.72;5227597;28;20029;-85
2021/05/14 07:40:48;;;;;;;14.05;6.95;;;;;;;14.85;100.00;100776.38;5227379;28;20025;-84
2021/05/14 07:43:18;;;;;;;10.55;6.30;;;;;;;14.95;100.00;100766.06;5227380;28;20033;-87
2021/05/14 07:45:49;;;;;;;13.80;7.07;;;;;;;15.00;100.00;100761.75;5225729;28;20039;-87
2021/05/14 07:48:20;;;;;;;10.52;6.30;;;;;;;15.25;100.00;100762.13;5242727;28;20124;-87
2021/05/14 07:50:51;;;;;;;13.15;7.30;;;;;;;15.34;100.00;100770.91;5226201;28;20480;-87
2021/05/14 07:53:22;;;;;;;16.08;7.97;;;;;;;15.11;100.00;100757.69;5227526;28;20357;-87
2021/05/14 07:55:52;;;;;;;15.07;7.93;;;;;;;15.22;100.00;100777.91;5226679;28;20074;-87
2021/05/14 07:58:23;;;;;;;14.23;6.82;;;;;;;15.25;100.00;100766.69;5226878;28;20128;-87
2021/05/14 08:00:54;;;;;;;16.08;7.28;;;;;;;15.64;100.00;100767.97;5226817;28;20025;-87
2021/05/14 08:03:25;;;;;;;13.45;6.43;;;;;;;15.88;100.00;100763.91;5226730;28;20031;-87
2021/05/14 08:05:56;;;;;;;12.70;7.32;;;;;;;15.90;100.00;100770.78;5226354;28;20059;-86
2021/05/14 08:08:28;;;;;;;12.98;7.20;;;;;;;15.73;100.00;100770.31;5226519;28;20029;-87
2021/05/14 08:10:58;;;;;;;14.98;8.48;;;;;;;15.69;100.00;100765.50;5227079;28;20028;-87
2021/05/14 08:13:29;;;;;;;16.92;7.50;;;;;;;15.59;100.00;100767.72;5227582;28;20147;-87
2021/05/14 08:15:59;;;;;;;12.75;6.72;;;;;;;15.70;100.00;100767.16;5225021;28;20033;-85
2021/05/14 08:18:30;;;;;;;14.10;7.55;;;;;;;15.60;100.00;100775.63;5225531;28;20545;-87
2021/05/14 08:21:00;;;;;;;13.75;7.20;;;;;;;15.65;100.00;100770.47;5226066;28;20083;-87
2021/05/14 08:23:31;;;;;;;17.83;7.97;;;;;;;15.99;100.00;100769.56;5225461;28;20463;-87
2021/05/14 08:26:01;;;;;;;14.20;7.70;;;;;;;16.28;100.00;100764.84;5225738;28;20095;-88
2021/05/14 08:28:32;;;;;;;21.65;9.23;;;;;;;16.27;100.00;100766.72;5224240;28;20029;-88
2021/05/14 08:31:02;;;;;;;18.48;8.88;;;;;;;16.42;100.00;100771.13;5224058;28;20112;-88
2021/05/14 08:33:33;;;;;;;17.42;8.70;;;;;;;16.62;100.00;100765.69;5224084;28;20021;-88
2021/05/14 08:36:04;;;;;;;19.75;7.78;;;;;;;16.80;100.00;100774.06;5225178;28;20033;-87
2021/05/14 08:38:35;;;;;;;18.70;9.05;;;;;;;17.09;100.00;100759.25;5224567;28;20638;-87
2021/05/14 08:41:07;;;;;;;14.70;7.65;;;;;;;17.34;100.00;100772.97;5225227;28;20465;-87
2021/05/14 08:43:38;;;;;;;16.25;8.20;;;;;;;17.37;100.00;100769.84;5224967;28;20807;-88
2021/05/14 08:46:13;;;;;;;20.48;8.60;;;;;;;17.40;100.00;100771.28;5224987;28;20028;-87
2021/05/14 08:48:44;;;;;;;18.05;9.20;;;;;;;17.74;97.91;100772.88;5225377;28;20045;-88
2021/05/14 08:51:14;;;;;;;16.48;8.23;;;;;;;17.85;96.79;100774.91;5224353;28;20021;-88
2021/05/14 08:53:46;;;;;;;15.07;6.78;;;;;;;17.74;94.67;100779.13;5224655;28;20025;-88
2021/05/14 08:56:17;;;;;;;14.13;6.60;;;;;;;17.70;96.61;100768.88;5224788;28;20030;-87
2021/05/14 08:58:47;;;;;;;13.20;6.38;;;;;;;18.02;88.74;100780.66;5225029;28;20028;-88
2021/05/14 09:01:17;;;;;;;13.75;6.93;;;;;;;18.42;82.09;100777.69;5224929;28;20032;-88
2021/05/14 09:04:02;;;;;;;13.65;6.68;;;;;;;18.55;81.82;100783.88;5224564;28;20035;-87
2021/05/14 09:06:36;;;;;;;12.95;7.05;;;;;;;18.48;78.43;100766.81;5224722;28;20118;-87
2021/05/14 09:09:08;;;;;;;15.23;6.95;;;;;;;18.56;80.73;100773.84;5224708;28;20154;-87
2021/05/14 09:11:41;;;;;;;12.38;6.63;;;;;;;18.02;81.04;100769.78;5224543;28;20518;-87
2021/05/14 09:14:36;;;;;;;13.00;7.22;;;;;;;18.04;88.62;100763.13;5225083;28;20025;-87
2021/05/14 09:17:09;;;;;;;13.40;7.10;;;;;;;17.98;98.39;100757.72;5224349;28;20040;-87
2021/05/14 09:19:43;;;;;;;15.73;7.88;;;;;;;17.71;89.24;100760.53;5224732;28;20503;-88
2021/05/14 09:22:14;;;;;;;16.23;7.43;;;;;;;17.85;94.47;100758.63;5224425;28;20032;-87
2021/05/14 09:24:48;;;;;;;14.85;7.60;;;;;;;17.81;96.02;100760.91;5224381;28;20029;-88
2021/05/14 09:27:32;;;;;;;16.15;8.18;;;;;;;17.62;98.20;100767.25;5224242;28;20094;-88
2021/05/14 09:30:05;;;;;;;14.15;6.97;;;;;;;18.16;100.00;100767.84;5224098;28;20025;-87
2021/05/14 09:32:38;;;;;;;13.45;6.35;;;;;;;18.61;93.91;100768.59;5224434;28;20547;-85
2021/05/14 09:35:08;;;;;;;16.95;6.10;;;;;;;18.66;84.99;100760.59;5222999;28;20025;-85
2021/05/14 09:37:48;;;;;;;14.18;5.75;;;;;;;18.52;85.90;100759.03;5224098;28;20033;-85
2021/05/14 09:40:20;;;;;;;14.50;6.53;;;;;;;18.47;82.93;100761.56;5223015;28;20021;-86
2021/05/14 09:43:00;;;;;;;13.68;5.35;;;;;;;18.25;79.37;100755.69;5223461;28;20052;-84
2021/05/14 09:45:31;;;;;;;9.43;4.70;;;;;;;18.12;83.83;100759.28;5223960;28;20057;-84
2021/05/14 09:48:14;;;;;;;12.27;4.53;;;;;;;17.92;89.43;100764.00;5223681;28;20057;-85
2021/05/14 09:50:46;;;;;;;10.05;5.20;;;;;;;17.31;100.00;100763.38;5222945;28;20021;-86
2021/05/14 09:53:19;;;;;;;12.20;6.07;;;;;;;16.71;100.00;100764.44;5223870;28;20028;-85
2021/05/14 09:55:50;;;;;;;13.48;6.40;;;;;;;16.30;100.00;100760.88;5223970;28;20032;-85
2021/05/14 09:58:24;;;;;;;13.77;6.00;;;;;;;16.15;100.00;100762.94;5224109;28;20426;-87
2021/05/14 10:00:54;;;;;;;12.57;6.50;;;;;;;15.75;100.00;100773.63;5224086;28;20028;-87
2021/05/14 10:03:26;;;;;;;12.43;6.50;;;;;;;15.23;100.00;100777.72;5224129;28;20649;-86
2021/05/14 10:05:56;;;;;;;10.93;5.38;;;;;;;14.68;100.00;100782.06;5224031;28;20024;-86
2021/05/14 10:08:31;;;;;;;13.38;5.80;;;;;;;14.40;100.00;100781.16;5224119;28;20025;-86
2021/05/14 10:11:02;;;;;;;18.30;6.30;;;;;;;13.96;100.00;100793.78;5210819;28;20024;-87
2021/05/14 10:13:36;;;;;;;13.63;4.93;;;;;;;13.63;100.00;100793.34;5223886;28;20025;-87
2021/05/14 10:16:06;;;;;;;9.25;4.00;;;;;;;13.21;100.00;100799.38;5224021;28;20373;-86
2021/05/14 10:18:42;;;;;;;7.82;4.10;;;;;;;13.11;100.00;100796.13;5223709;28;20025;-87
2021/05/14 10:21:14;;;;;;;12.15;4.63;;;;;;;13.04;100.00;100803.25;5223632;28;20486;-87
2021/05/14 10:23:46;;;;;;;7.70;4.55;;;;;;;12.87;100.00;100797.19;5223363;28;20028;-87
2021/05/14 10:26:16;;;;;;;9.70;4.78;;;;;;;12.57;100.00;100802.47;5223383;28;20025;-86
2021/05/14 10:28:49;;;;;;;12.77;6.80;;;;;;;12.43;100.00;100795.19;5223417;28;20430;-88
2021/05/14 10:31:23;;;;;;;21.58;7.15;;;;;;;12.34;100.00;100799.78;5223583;28;20127;-88
2021/05/14 10:33:57;;;;;;;13.75;6.60;;;;;;;12.35;100.00;100806.00;5223374;28;20510;-88
2021/05/14 10:36:31;;;;;;;13.52;6.57;;;;;;;12.34;100.00;100815.09;5223331;28;20427;-89
2021/05/14 10:39:05;;;;;;;20.00;8.60;;;;;;;12.30;100.00;100808.38;5223580;28;20103;-88
2021/05/14 10:41:47;;;;;;;30.05;10.63;;;;;;;12.28;100.00;100805.06;5227789;28;20500;-88
2021/05/14 10:44:17;;;;;;;16.73;9.05;;;;;;;12.24;100.00;100809.09;5227224;28;20021;-88
2021/05/14 10:46:48;;;;;;;18.88;9.18;;;;;;;12.28;100.00;100813.13;5226541;28;20182;-88
2021/05/14 10:49:18;;;;;;;21.60;10.07;;;;;;;12.23;100.00;100810.13;5227452;28;20017;-88
2021/05/14 10:51:49;;;;;;;23.08;9.60;;;;;;;12.21;100.00;100804.94;5227488;28;20120;-87
2021/05/14 10:54:38;;;;;;;20.98;9.48;;;;;;;12.21;100.00;100807.63;5229914;28;20056;-87
2021/05/14 10:57:12;;;;;;;21.15;9.27;;;;;;;12.26;100.00;100801.72;5251840;28;20055;-86
2021/05/14 10:59:44;;;;;;;15.60;7.55;;;;;;;12.32;100.00;100788.38;5251485;28;20053;-87
2021/05/14 11:02:30;;;;;;;16.73;7.57;;;;;;;12.51;100.00;100786.22;5236361;28;20021;-87
2021/05/14 11:05:01;;;;;;;18.50;7.28;;;;;;;12.77;100.00;100777.75;5225979;28;20056;-87
2021/05/14 11:07:37;;;;;;;15.95;7.35;;;;;;;12.90;100.00;100775.25;5227898;28;20079;-87
2021/05/14 11:10:13;;;;;;;13.88;7.35;;;;;;;13.18;100.00;100781.72;5228324;28;20654;-87
2021/05/14 11:12:45;;;;;;;15.80;6.80;;;;;;;13.35;100.00;100778.88;5226731;28;20052;-87
2021/05/14 11:15:21;;;;;;;15.25;6.32;;;;;;;13.68;100.00;100774.75;5226376;28;20032;-88
2021/05/14 11:18:05;;;;;;;10.55;5.32;;;;;;;14.17;100.00;100782.19;5226949;28;20033;-87
2021/05/14 11:20:47;;;;;;;6.88;3.38;;;;;;;14.69;100.00;100778.34;5225224;28;20029;-87
2021/05/14 11:23:38;;;;;;;6.70;3.60;;;;;;;15.24;100.00;100783.94;5225554;28;20396;-88
2021/05/14 11:26:18;;;;;;;3.47;2.20;;;;;;;15.90;100.00;100778.06;5226389;28;20114;-88
2021/05/14 11:28:52;;;;;;;8.32;2.90;;;;;;;16.90;100.00;100773.66;5213675;28;20025;-88